Time;durP1;ratioP1;P1;durP2;ratioP2;P2;SDS_P1;SDS_P2;PMS_P1;PMS_P2;Temp;Humidity;BMP_temperature;BMP_pressure;BME280_temperature;BME280_humidity;BME280_pressure;Samples;Min_cycle;Max_cycle;Signal;HPM_P1;HPM_P2
2022/08/09 00:02:38;;;;;;;21.05;19.42;;;16.30;99.90;;;;;;5020198;28;20045;-73
2022/08/09 00:05:20;;;;;;;20.95;19.27;;;16.30;99.90;;;;;;5019005;28;20053;-73
2022/08/09 00:08:09;;;;;;;20.50;19.15;;;16.30;99.90;;;;;;5016079;28;20037;-72
2022/08/09 00:11:00;;;;;;;20.98;19.23;;;16.30;99.90;;;;;;5021391;28;20041;-73
2022/08/09 00:13:42;;;;;;;20.70;19.35;;;16.20;99.90;;;;;;5021329;28;20068;-72
2022/08/09 00:16:10;;;;;;;20.58;18.98;;;16.20;99.90;;;;;;5017269;28;20116;-72
2022/08/09 00:18:39;;;;;;;21.15;19.65;;;16.10;99.90;;;;;;5019183;28;20029;-73
2022/08/09 00:21:08;;;;;;;21.55;19.83;;;16.10;99.90;;;;;;5017025;28;20416;-73
2022/08/09 00:23:36;;;;;;;21.30;19.90;;;16.00;99.90;;;;;;5020439;28;20114;-73
2022/08/09 00:26:24;;;;;;;21.20;19.65;;;15.90;99.90;;;;;;5015266;28;20044;-73
2022/08/09 00:29:02;;;;;;;21.73;20.13;;;15.90;99.90;;;;;;5004941;28;20680;-73
2022/08/09 00:31:38;;;;;;;21.17;19.67;;;15.70;99.90;;;;;;5015245;28;20045;-73
2022/08/09 00:34:25;;;;;;;21.23;19.90;;;15.60;99.90;;;;;;5016169;28;20045;-72
2022/08/09 00:36:52;;;;;;;21.20;19.65;;;15.60;99.90;;;;;;5018634;28;20341;-73
2022/08/09 00:39:18;;;;;;;20.27;18.85;;;15.60;99.90;;;;;;5032177;28;20061;-73
2022/08/09 00:42:06;;;;;;;20.83;19.33;;;15.60;99.90;;;;;;5013398;28;20735;-73
2022/08/09 00:44:54;;;;;;;20.92;19.42;;;15.50;99.90;;;;;;5005091;28;20053;-73
2022/08/09 00:47:21;;;;;;;20.13;18.90;;;15.60;99.90;;;;;;5013887;28;20227;-73
2022/08/09 00:49:50;;;;;;;20.80;19.40;;;15.50;99.90;;;;;;5023360;28;20055;-73
2022/08/09 00:52:21;;;;;;;20.55;19.17;;;15.40;99.90;;;;;;5013088;28;20045;-73
2022/08/09 00:54:59;;;;;;;20.15;18.77;;;15.40;99.90;;;;;;5021982;28;20802;-73
2022/08/09 00:57:30;;;;;;;20.55;19.13;;;15.30;99.90;;;;;;5015768;28;20788;-73
2022/08/09 01:00:07;;;;;;;20.50;19.00;;;15.30;99.90;;;;;;5013817;28;20049;-73
2022/08/09 01:03:15;;;;;;;20.60;19.30;;;15.20;99.90;;;;;;5014385;28;20045;-73
2022/08/09 01:05:53;;;;;;;21.23;19.58;;;15.10;99.90;;;;;;5036498;28;20040;-73
2022/08/09 01:08:53;;;;;;;20.58;19.08;;;15.20;99.90;;;;;;5013734;28;20529;-73
2022/08/09 01:11:43;;;;;;;19.92;18.38;;;15.20;99.90;;;;;;5017552;28;20110;-73
2022/08/09 01:14:27;;;;;;;20.00;18.55;;;15.20;99.90;;;;;;5020420;28;20048;-73
2022/08/09 01:17:01;;;;;;;20.10;18.60;;;15.20;99.90;;;;;;5035231;28;20393;-72
2022/08/09 01:19:53;;;;;;;19.53;18.30;;;15.50;99.90;;;;;;5036297;28;20044;-72
2022/08/09 01:22:40;;;;;;;20.40;18.75;;;15.60;99.90;;;;;;5014384;28;20515;-73
2022/08/09 01:25:25;;;;;;;20.48;19.23;;;15.60;99.90;;;;;;5037807;28;20048;-74
2022/08/09 01:27:55;;;;;;;20.40;19.00;;;15.70;99.90;;;;;;5014901;28;20053;-73
2022/08/09 01:30:27;;;;;;;19.98;18.52;;;15.70;99.90;;;;;;5013767;28;20347;-73
2022/08/09 01:33:15;;;;;;;20.67;19.05;;;15.70;99.90;;;;;;5014283;28;20270;-73
2022/08/09 01:35:56;;;;;;;20.35;18.88;;;15.70;99.90;;;;;;5026881;28;20044;-73
2022/08/09 01:38:29;;;;;;;21.60;19.73;;;15.70;99.90;;;;;;5040002;28;20044;-73
2022/08/09 01:41:12;;;;;;;20.48;18.92;;;15.70;99.90;;;;;;5038591;28;20041;-73
2022/08/09 01:43:43;;;;;;;20.88;19.45;;;15.60;99.90;;;;;;5018688;28;20037;-73
2022/08/09 01:46:42;;;;;;;20.60;18.73;;;15.60;99.90;;;;;;5028578;28;20048;-73
2022/08/09 01:49:16;;;;;;;20.25;18.95;;;15.70;99.90;;;;;;5016244;28;20711;-73
2022/08/09 01:51:45;;;;;;;20.08;18.58;;;15.60;99.90;;;;;;5017884;28;20546;-73
2022/08/09 01:54:38;;;;;;;20.95;19.00;;;15.60;99.90;;;;;;5016587;28;20051;-73
2022/08/09 01:57:38;;;;;;;;;;;15.60;99.90;;;;;;4987112;28;20057;-73
2022/08/09 02:00:13;;;;;;;20.83;19.33;;;15.50;99.90;;;;;;5002019;28;19920;-74
2022/08/09 02:03:01;;;;;;;19.98;18.63;;;15.50;99.90;;;;;;5018261;28;20494;-74
2022/08/09 02:05:30;;;;;;;20.52;19.13;;;15.50;99.90;;;;;;5000139;28;20459;-73
2022/08/09 02:08:19;;;;;;;20.42;18.70;;;15.40;99.90;;;;;;5020411;28;20052;-73
2022/08/09 02:11:07;;;;;;;19.88;18.58;;;15.40;99.90;;;;;;5033515;28;20044;-74
2022/08/09 02:13:44;;;;;;;20.88;19.30;;;15.40;99.90;;;;;;5016598;28;20061;-73
2022/08/09 02:16:35;;;;;;;20.92;19.27;;;15.40;99.90;;;;;;5024695;28;20041;-73
2022/08/09 02:19:22;;;;;;;20.75;19.25;;;15.30;99.90;;;;;;5012309;28;20090;-73
2022/08/09 02:21:56;;;;;;;21.27;19.38;;;15.20;99.90;;;;;;5021414;28;20167;-72
2022/08/09 02:24:28;;;;;;;21.65;19.83;;;15.20;99.90;;;;;;5031353;28;20051;-73
2022/08/09 02:27:00;;;;;;;20.50;19.13;;;15.10;99.90;;;;;;5024990;28;20048;-74
2022/08/09 02:29:32;;;;;;;20.50;18.92;;;15.00;99.90;;;;;;5013790;28;20176;-73
2022/08/09 02:32:02;;;;;;;20.85;19.10;;;15.00;99.90;;;;;;5019434;28;20728;-74
2022/08/09 02:34:33;;;;;;;20.60;19.08;;;14.90;99.90;;;;;;5042442;22;20148;-76
2022/08/09 02:37:15;;;;;;;19.83;18.38;;;14.90;99.90;;;;;;5018111;28;20037;-77
2022/08/09 02:39:49;;;;;;;20.40;18.88;;;14.90;99.90;;;;;;5032414;28;20136;-77
2022/08/09 02:42:33;;;;;;;20.85;19.23;;;15.00;99.90;;;;;;5008224;28;20049;-78
2022/08/09 02:45:13;;;;;;;20.20;18.80;;;14.90;99.90;;;;;;5023770;28;20434;-78
2022/08/09 02:47:42;;;;;;;20.75;19.25;;;14.80;99.90;;;;;;5030867;28;20716;-77
2022/08/09 02:50:33;;;;;;;19.98;18.77;;;14.90;99.90;;;;;;5031111;28;20041;-77
2022/08/09 02:53:03;;;;;;;19.95;18.52;;;14.90;99.90;;;;;;5013107;28;20052;-76
2022/08/09 02:55:32;;;;;;;20.40;18.65;;;14.90;99.90;;;;;;5031671;28;20106;-77
2022/08/09 02:58:21;;;;;;;19.75;18.20;;;14.80;99.90;;;;;;5011999;28;20076;-78
2022/08/09 03:01:07;;;;;;;20.10;18.70;;;14.80;99.90;;;;;;5014082;28;20071;-77
2022/08/09 03:03:42;;;;;;;22.08;20.05;;;14.80;99.90;;;;;;5035760;28;20037;-77
2022/08/09 03:06:29;;;;;;;20.48;18.63;;;14.70;99.90;;;;;;5021752;28;20386;-78
2022/08/09 03:09:00;;;;;;;20.08;18.42;;;14.70;99.90;;;;;;5035914;28;20219;-77
2022/08/09 03:11:28;;;;;;;19.85;18.25;;;14.70;99.90;;;;;;5031648;28;20046;-77
2022/08/09 03:14:17;;;;;;;21.25;19.23;;;14.70;99.90;;;;;;5019463;28;20589;-78
2022/08/09 03:16:44;;;;;;;19.23;17.73;;;14.60;99.90;;;;;;5017137;28;20541;-76
2022/08/09 03:19:17;;;;;;;20.60;19.00;;;14.70;99.90;;;;;;5019978;28;20053;-77
2022/08/09 03:22:05;;;;;;;19.33;17.83;;;14.60;99.90;;;;;;5031886;28;20161;-77
2022/08/09 03:24:45;;;;;;;20.20;18.45;;;14.70;99.90;;;;;;5024728;28;20512;-77
2022/08/09 03:27:19;;;;;;;19.90;18.15;;;14.80;99.90;;;;;;5038184;28;20064;-77
2022/08/09 03:29:50;;;;;;;20.95;19.25;;;14.80;99.90;;;;;;5042451;28;20064;-77
2022/08/09 03:32:32;;;;;;;20.17;18.52;;;14.70;99.90;;;;;;5031459;28;20038;-77
2022/08/09 03:35:03;;;;;;;21.42;19.42;;;14.80;99.90;;;;;;5040300;28;20118;-76
2022/08/09 03:37:50;;;;;;;21.45;19.52;;;14.70;99.90;;;;;;5032619;28;20053;-78
2022/08/09 03:40:24;;;;;;;19.80;18.25;;;14.70;99.90;;;;;;5040971;28;20104;-77
2022/08/09 03:42:56;;;;;;;19.70;18.20;;;14.70;99.90;;;;;;5019289;28;20049;-76
2022/08/09 03:45:23;;;;;;;19.83;18.27;;;14.70;99.90;;;;;;5022701;28;20486;-77
2022/08/09 03:48:10;;;;;;;19.58;18.17;;;14.80;99.90;;;;;;5018683;28;20041;-77
2022/08/09 03:50:44;;;;;;;20.10;18.80;;;14.80;99.90;;;;;;5021339;28;20302;-78
2022/08/09 03:53:17;;;;;;;20.75;19.20;;;14.80;99.90;;;;;;5034378;28;20049;-77
2022/08/09 03:55:48;;;;;;;20.80;19.38;;;14.70;99.90;;;;;;5039797;28;20083;-77
2022/08/09 03:58:15;;;;;;;20.33;18.58;;;14.70;99.90;;;;;;5029804;28;20049;-77
2022/08/09 04:00:48;;;;;;;20.35;18.73;;;14.60;99.90;;;;;;5033684;28;20097;-76
2022/08/09 04:03:16;;;;;;;20.05;18.50;;;14.60;99.90;;;;;;5035583;28;20379;-77
2022/08/09 04:06:01;;;;;;;21.27;19.25;;;14.50;99.90;;;;;;5032105;28;20520;-77
2022/08/09 04:08:31;;;;;;;20.42;18.92;;;14.50;99.90;;;;;;5022652;28;20049;-77
2022/08/09 04:11:01;;;;;;;20.45;18.75;;;14.50;99.90;;;;;;5010793;28;20053;-77
2022/08/09 04:13:28;;;;;;;20.98;19.30;;;14.50;99.90;;;;;;5023981;28;20581;-77
2022/08/09 04:16:15;;;;;;;21.60;19.80;;;14.50;99.90;;;;;;5038658;28;20627;-77
2022/08/09 04:18:47;;;;;;;21.63;19.60;;;14.50;99.90;;;;;;5035081;28;20995;-77
2022/08/09 04:21:17;;;;;;;21.48;19.48;;;14.40;99.90;;;;;;5030201;28;20841;-77
2022/08/09 04:23:44;;;;;;;21.75;19.92;;;14.50;99.90;;;;;;5026784;28;20072;-77
2022/08/09 04:26:24;;;;;;;21.13;19.52;;;14.40;99.90;;;;;;5024471;28;20100;-77
2022/08/09 04:29:03;;;;;;;24.08;21.52;;;14.40;99.90;;;;;;5020825;28;20042;-77
2022/08/09 04:31:40;;;;;;;21.98;20.45;;;14.50;99.90;;;;;;5018402;28;20048;-77
2022/08/09 04:34:13;;;;;;;22.83;21.15;;;14.50;99.90;;;;;;5024343;28;20117;-77
2022/08/09 04:36:56;;;;;;;22.63;20.92;;;14.40;99.90;;;;;;5038818;28;20096;-77
2022/08/09 04:39:24;;;;;;;22.77;20.77;;;14.40;99.90;;;;;;5016365;28;20475;-77
2022/08/09 04:41:57;;;;;;;23.25;21.02;;;14.40;99.90;;;;;;5017718;28;20053;-77
2022/08/09 04:44:28;;;;;;;21.80;20.30;;;14.50;99.90;;;;;;5020818;28;20068;-77
2022/08/09 04:46:56;;;;;;;21.70;20.20;;;14.40;99.90;;;;;;5023794;28;20683;-77
2022/08/09 04:49:36;;;;;;;22.65;20.40;;;14.30;99.90;;;;;;5020493;28;20029;-76
2022/08/09 04:52:22;;;;;;;22.30;20.35;;;14.40;99.90;;;;;;5011803;28;20526;-77
2022/08/09 04:54:58;;;;;;;21.25;19.42;;;14.20;99.90;;;;;;5024461;28;20353;-77
2022/08/09 04:57:26;;;;;;;21.50;19.60;;;14.40;99.90;;;;;;5026003;28;20064;-77
2022/08/09 05:00:13;;;;;;;22.13;20.20;;;14.50;99.90;;;;;;5048619;28;20254;-76
2022/08/09 05:02:43;;;;;;;21.73;19.75;;;14.50;99.90;;;;;;5040822;28;20057;-76
2022/08/09 05:05:14;;;;;;;21.27;19.67;;;14.60;99.90;;;;;;5043997;28;20037;-76
2022/08/09 05:07:58;;;;;;;21.65;19.92;;;14.60;99.90;;;;;;5034084;28;20064;-76
2022/08/09 05:10:26;;;;;;;21.13;19.50;;;14.70;99.90;;;;;;5037910;28;20041;-75
2022/08/09 05:12:53;;;;;;;21.98;20.13;;;14.80;99.90;;;;;;5017124;28;20568;-76
2022/08/09 05:15:20;;;;;;;22.42;20.35;;;14.90;99.90;;;;;;5024039;28;20068;-76
2022/08/09 05:18:04;;;;;;;21.88;20.38;;;15.00;99.90;;;;;;5022970;28;20053;-76
2022/08/09 05:20:51;;;;;;;21.83;19.75;;;15.00;99.90;;;;;;5025593;28;20701;-76
2022/08/09 05:23:18;;;;;;;21.45;19.65;;;15.10;99.90;;;;;;5026940;28;20074;-76
2022/08/09 05:26:05;;;;;;;22.42;20.55;;;15.20;99.90;;;;;;5031918;28;20528;-76
2022/08/09 05:28:33;;;;;;;23.10;21.48;;;15.30;99.90;;;;;;5030459;28;20038;-76
2022/08/09 05:31:00;;;;;;;22.65;20.63;;;15.40;99.90;;;;;;5036966;28;20195;-76
2022/08/09 05:33:35;;;;;;;22.05;20.35;;;15.40;99.90;;;;;;5039795;28;20735;-76
2022/08/09 05:36:08;;;;;;;22.83;21.00;;;15.50;99.90;;;;;;5029853;28;20274;-76
2022/08/09 05:38:37;;;;;;;22.85;21.15;;;15.60;99.90;;;;;;5042033;28;20053;-77
2022/08/09 05:41:05;;;;;;;22.77;21.00;;;15.70;99.90;;;;;;5019479;28;20049;-77
2022/08/09 05:43:38;;;;;;;24.42;22.30;;;15.80;99.90;;;;;;5004050;28;20107;-77
2022/08/09 05:46:14;;;;;;;23.35;21.65;;;15.80;99.90;;;;;;5032330;28;20530;-79
2022/08/09 05:48:41;;;;;;;24.17;22.40;;;15.80;99.90;;;;;;5043866;28;20079;-79
2022/08/09 05:51:08;;;;;;;23.33;21.73;;;15.80;99.90;;;;;;5024107;28;20041;-80
2022/08/09 05:53:55;;;;;;;23.55;22.00;;;15.80;99.90;;;;;;5009044;28;20612;-80
2022/08/09 05:56:25;;;;;;;24.48;22.67;;;15.90;99.90;;;;;;5022079;28;20102;-79
2022/08/09 05:58:59;;;;;;;23.55;21.88;;;16.00;99.90;;;;;;5026345;28;20050;-79
2022/08/09 06:01:27;;;;;;;24.23;22.55;;;16.10;99.90;;;;;;5032959;28;20151;-79
2022/08/09 06:04:08;;;;;;;24.30;22.50;;;16.30;99.90;;;;;;5012645;28;20041;-77
2022/08/09 06:06:39;;;;;;;24.17;22.30;;;16.40;99.90;;;;;;5015291;28;20057;-78
2022/08/09 06:09:17;;;;;;;24.25;22.45;;;16.60;99.90;;;;;;5006975;28;20084;-78
2022/08/09 06:12:04;;;;;;;25.35;23.45;;;16.90;99.90;;;;;;5023736;28;20155;-78
2022/08/09 06:14:33;;;;;;;24.67;22.98;;;17.20;99.90;;;;;;5023851;28;20155;-76
2022/08/09 06:17:00;;;;;;;24.75;22.80;;;17.40;99.90;;;;;;5025401;28;20099;-76
2022/08/09 06:19:35;;;;;;;24.98;23.38;;;17.50;99.90;;;;;;5021685;28;20045;-77
2022/08/09 06:22:05;;;;;;;25.40;23.40;;;17.60;99.90;;;;;;5033300;28;20689;-78
2022/08/09 06:24:40;;;;;;;24.75;22.88;;;17.80;99.90;;;;;;5043249;28;20126;-79
2022/08/09 06:27:07;;;;;;;24.88;23.27;;;18.00;99.90;;;;;;5034842;28;20045;-78
2022/08/09 06:29:34;;;;;;;24.05;22.35;;;18.20;99.90;;;;;;5038976;28;20072;-79
2022/08/09 06:32:21;;;;;;;24.85;22.73;;;18.50;99.90;;;;;;5044059;28;20483;-78
2022/08/09 06:35:08;;;;;;;24.38;22.42;;;18.70;99.90;;;;;;5020448;28;20521;-79
2022/08/09 06:37:36;;;;;;;25.42;23.48;;;18.60;99.90;;;;;;5029822;28;20041;-78
2022/08/09 06:40:23;;;;;;;23.98;22.23;;;18.80;99.90;;;;;;5020628;28;20037;-78
2022/08/09 06:42:50;;;;;;;25.13;23.50;;;19.00;99.90;;;;;;5022883;28;20050;-80
2022/08/09 06:45:17;;;;;;;24.27;22.67;;;19.10;99.90;;;;;;5023471;28;20045;-79
2022/08/09 06:48:04;;;;;;;24.80;23.00;;;18.90;99.90;;;;;;5056894;28;20610;-78
2022/08/09 06:50:31;;;;;;;25.50;23.88;;;19.00;99.90;;;;;;5043669;28;20044;-79
2022/08/09 06:52:59;;;;;;;24.90;23.40;;;19.00;99.90;;;;;;5036221;28;20054;-79
2022/08/09 06:55:30;;;;;;;26.15;24.05;;;18.90;99.90;;;;;;5033140;28;20069;-78
2022/08/09 06:58:00;;;;;;;25.63;24.10;;;19.10;99.90;;;;;;5033604;28;20206;-80
2022/08/09 07:00:32;;;;;;;25.77;24.23;;;19.20;99.90;;;;;;5030088;28;20053;-79
2022/08/09 07:03:20;;;;;;;25.77;24.02;;;19.40;99.90;;;;;;5018622;28;20218;-80
2022/08/09 07:05:55;;;;;;;26.33;24.27;;;19.10;99.90;;;;;;5021123;28;20046;-79
2022/08/09 07:08:34;;;;;;;26.55;24.58;;;19.30;99.90;;;;;;5042865;28;20076;-79
2022/08/09 07:11:05;;;;;;;26.60;24.90;;;19.50;99.90;;;;;;5030618;28;20052;-79
2022/08/09 07:13:33;;;;;;;25.10;23.58;;;19.50;99.90;;;;;;5024618;28;20271;-79
2022/08/09 07:16:20;;;;;;;26.45;24.67;;;19.70;99.90;;;;;;5030433;28;20573;-79
2022/08/09 07:19:09;;;;;;;25.42;23.95;;;19.90;99.90;;;;;;5043626;28;20048;-80
2022/08/09 07:21:42;;;;;;;25.45;23.85;;;19.90;99.90;;;;;;5032822;28;20495;-78
2022/08/09 07:24:22;;;;;;;25.50;23.95;;;20.00;99.90;;;;;;5020264;28;20048;-77
2022/08/09 07:27:07;;;;;;;25.95;24.05;;;20.10;99.90;;;;;;5018255;28;20052;-78
2022/08/09 07:29:53;;;;;;;27.23;25.52;;;20.70;99.90;;;;;;5008499;28;20046;-78
2022/08/09 07:32:25;;;;;;;26.83;25.10;;;20.50;99.90;;;;;;5008986;28;20131;-77
2022/08/09 07:34:58;;;;;;;25.23;23.63;;;20.70;99.90;;;;;;5015699;28;20067;-78
2022/08/09 07:37:25;;;;;;;26.52;24.73;;;20.60;99.90;;;;;;5036118;28;20052;-79
2022/08/09 07:39:52;;;;;;;26.80;25.00;;;20.20;99.90;;;;;;5022019;28;20053;-79
2022/08/09 07:42:22;;;;;;;25.30;23.75;;;20.50;99.90;;;;;;5036252;28;20126;-77
2022/08/09 07:44:59;;;;;;;25.77;24.27;;;20.80;99.90;;;;;;5032676;28;20060;-78
2022/08/09 07:47:40;;;;;;;26.83;25.17;;;21.10;99.90;;;;;;5008141;28;20038;-77
2022/08/09 07:50:28;;;;;;;27.00;25.10;;;21.60;99.90;;;;;;5015434;28;20087;-78
2022/08/09 07:53:02;;;;;;;28.10;26.02;;;21.50;99.90;;;;;;5005350;28;20083;-78
2022/08/09 07:55:31;;;;;;;27.45;25.25;;;21.20;99.90;;;;;;5009071;28;20056;-78
2022/08/09 07:58:18;;;;;;;27.45;25.45;;;20.60;99.90;;;;;;5003703;28;20054;-78
2022/08/09 08:00:47;;;;;;;27.35;25.58;;;20.60;99.90;;;;;;5022704;28;20050;-78
2022/08/09 08:03:32;;;;;;;27.17;25.20;;;20.70;99.90;;;;;;5033210;28;20041;-79
2022/08/09 08:06:03;;;;;;;26.95;24.85;;;21.20;99.90;;;;;;5019921;28;20092;-79
2022/08/09 08:08:31;;;;;;;26.77;24.83;;;22.10;99.90;;;;;;5023586;28;20611;-78
2022/08/09 08:11:18;;;;;;;26.08;24.25;;;22.40;99.90;;;;;;5026328;28;20046;-79
2022/08/09 08:14:05;;;;;;;25.20;23.60;;;22.50;99.90;;;;;;5021012;28;20376;-78
2022/08/09 08:16:32;;;;;;;26.50;24.70;;;22.10;99.90;;;;;;5060305;28;20045;-78
2022/08/09 08:19:00;;;;;;;25.90;24.20;;;21.90;99.90;;;;;;5047123;28;20045;-77
2022/08/09 08:21:30;;;;;;;27.48;25.55;;;22.00;99.90;;;;;;5030224;28;20136;-78
2022/08/09 08:23:57;;;;;;;26.75;25.05;;;21.90;99.90;;;;;;5004547;28;20049;-77
2022/08/09 08:26:37;;;;;;;27.35;25.48;;;22.40;99.90;;;;;;5012267;28;20264;-79
2022/08/09 08:29:25;;;;;;;27.65;25.75;;;22.80;99.90;;;;;;5012890;28;20046;-77
2022/08/09 08:31:55;;;;;;;26.15;24.38;;;23.00;99.90;;;;;;5022803;28;20420;-78
2022/08/09 08:34:31;;;;;;;26.40;24.52;;;22.80;99.90;;;;;;5040903;28;20051;-78
2022/08/09 08:37:01;;;;;;;26.70;24.90;;;22.60;99.90;;;;;;5007183;28;20061;-78
2022/08/09 08:39:27;;;;;;;26.58;24.88;;;22.50;99.90;;;;;;5023061;28;20040;-78
2022/08/09 08:42:06;;;;;;;25.98;24.52;;;22.20;99.90;;;;;;5024709;28;20461;-78
2022/08/09 08:44:36;;;;;;;26.92;25.10;;;22.40;99.90;;;;;;5027835;28;20061;-78
2022/08/09 08:47:05;;;;;;;26.90;25.25;;;22.40;99.90;;;;;;5010038;28;20038;-77
2022/08/09 08:49:39;;;;;;;27.52;25.50;;;22.70;99.90;;;;;;5004017;28;20045;-78
2022/08/09 08:52:24;;;;;;;27.40;25.38;;;23.70;99.90;;;;;;5015108;28;20076;-77
2022/08/09 08:55:12;;;;;;;27.45;25.75;;;23.90;99.90;;;;;;5020067;28;20049;-77
2022/08/09 08:57:48;;;;;;;27.88;25.95;;;23.40;99.90;;;;;;5031780;28;20128;-76
2022/08/09 09:00:26;;;;;;;27.95;26.20;;;23.10;99.90;;;;;;5025985;28;20135;-76
2022/08/09 09:03:02;;;;;;;28.42;26.38;;;23.30;99.90;;;;;;5032328;28;20057;-76
2022/08/09 09:05:49;;;;;;;27.27;25.25;;;23.80;99.90;;;;;;5026471;28;20095;-77
2022/08/09 09:08:33;;;;;;;28.10;26.27;;;24.60;99.90;;;;;;5029148;28;20041;-76
2022/08/09 09:11:08;;;;;;;27.38;25.67;;;24.10;99.90;;;;;;5022058;28;20049;-76
2022/08/09 09:13:45;;;;;;;28.05;26.33;;;23.50;99.90;;;;;;5034059;28;20128;-76
2022/08/09 09:16:31;;;;;;;28.48;26.80;;;24.00;99.90;;;;;;5006276;28;20523;-78
2022/08/09 09:19:03;;;;;;;28.80;26.75;;;23.90;99.90;;;;;;5003556;28;20061;-78
2022/08/09 09:21:58;;;;;;;26.75;25.15;;;23.70;99.90;;;;;;5030357;28;20414;-78
2022/08/09 09:24:28;;;;;;;26.85;25.33;;;23.80;99.90;;;;;;5049709;28;20061;-79
2022/08/09 09:26:58;;;;;;;28.17;26.17;;;24.00;99.90;;;;;;5022595;28;20521;-78
2022/08/09 09:29:30;;;;;;;28.10;26.45;;;23.90;99.90;;;;;;5012599;28;20081;-79
2022/08/09 09:32:25;;;;;;;28.40;26.40;;;24.30;99.90;;;;;;5016114;28;20111;-79
2022/08/09 09:35:09;;;;;;;28.92;27.10;;;24.20;99.90;;;;;;5029105;28;20102;-79
2022/08/09 09:37:44;;;;;;;28.08;26.30;;;24.30;99.90;;;;;;5027803;28;20054;-78
2022/08/09 09:40:11;;;;;;;28.67;26.60;;;24.20;99.90;;;;;;5031797;28;20588;-79
2022/08/09 09:42:39;;;;;;;27.25;25.60;;;23.80;99.90;;;;;;5016782;28;20050;-79
2022/08/09 09:45:12;;;;;;;27.67;25.77;;;24.10;99.90;;;;;;5011964;28;20050;-79
2022/08/09 09:47:51;;;;;;;28.17;26.23;;;24.70;99.90;;;;;;5035705;28;20052;-79
2022/08/09 09:50:45;;;;;;;28.42;26.83;;;24.80;99.90;;;;;;5024363;28;20052;-79
2022/08/09 09:53:27;;;;;;;27.92;26.35;;;24.90;99.90;;;;;;5021388;28;20076;-80
2022/08/09 09:56:13;;;;;;;27.55;25.75;;;25.00;99.90;;;;;;5014861;28;20143;-79
2022/08/09 09:58:58;;;;;;;29.52;27.60;;;24.40;99.90;;;;;;5025110;28;20123;-78
2022/08/09 10:01:26;;;;;;;28.40;26.60;;;24.80;99.90;;;;;;4998892;28;20103;-78
2022/08/09 10:04:12;;;;;;;29.05;27.27;;;25.30;99.90;;;;;;5025777;28;20399;-79
2022/08/09 10:06:48;;;;;;;29.15;27.33;;;25.60;99.90;;;;;;5020888;28;20054;-79
2022/08/09 10:09:20;;;;;;;29.35;27.45;;;26.00;99.90;;;;;;5034964;28;20041;-79
2022/08/09 10:11:59;;;;;;;30.33;28.23;;;25.60;99.90;;;;;;5013794;28;20128;-79
2022/08/09 10:14:46;;;;;;;29.27;27.33;;;25.00;99.90;;;;;;5016188;28;20064;-79
2022/08/09 10:17:18;;;;;;;30.58;28.67;;;25.30;99.90;;;;;;4997300;28;20493;-78
2022/08/09 10:20:33;;;;;;;30.25;28.45;;;25.20;99.90;;;;;;5013244;28;20076;-78
2022/08/09 10:23:19;;;;;;;31.20;29.23;;;25.40;99.90;;;;;;5028258;28;20045;-79
2022/08/09 10:25:51;;;;;;;30.15;28.23;;;25.00;99.90;;;;;;5022264;28;20044;-80
2022/08/09 10:28:35;;;;;;;29.60;27.77;;;25.00;99.90;;;;;;5036781;28;20114;-79
2022/08/09 10:31:03;;;;;;;30.65;28.63;;;25.30;99.90;;;;;;5044753;28;20049;-79
2022/08/09 10:33:50;;;;;;;30.17;28.25;;;24.90;99.90;;;;;;5040919;28;20063;-81
2022/08/09 10:36:38;;;;;;;31.52;29.63;;;25.40;99.90;;;;;;5040647;28;20056;-79
2022/08/09 10:39:05;;;;;;;30.45;28.55;;;26.10;99.90;;;;;;5041229;28;20044;-80
2022/08/09 10:42:09;;;;;;;32.00;29.90;;;26.20;99.90;;;;;;5041898;28;20690;-79
2022/08/09 10:44:37;;;;;;;31.90;29.90;;;25.30;99.90;;;;;;5020242;28;20040;-79
2022/08/09 10:47:52;;;;;;;31.00;28.88;;;25.50;99.90;;;;;;5030501;28;20122;-79
2022/08/09 10:51:08;;;;;;;31.02;28.98;;;25.40;99.90;;;;;;5032843;28;20130;-78
2022/08/09 10:54:05;;;;;;;31.10;29.10;;;25.80;99.90;;;;;;5029298;28;20136;-79
2022/08/09 10:56:39;;;;;;;33.35;31.27;;;25.60;99.90;;;;;;5027892;28;20059;-79
2022/08/09 10:59:21;;;;;;;32.22;30.33;;;25.10;99.90;;;;;;5036384;28;20655;-82
2022/08/09 11:01:57;;;;;;;32.28;30.08;;;25.60;99.90;;;;;;5021089;28;20041;-79
2022/08/09 11:05:12;;;;;;;33.58;31.10;;;26.30;99.90;;;;;;5057001;28;20049;-79
2022/08/09 11:07:51;;;;;;;33.08;30.70;;;26.50;99.90;;;;;;5028668;28;20049;-79
2022/08/09 11:10:42;;;;;;;32.95;30.77;;;25.60;99.90;;;;;;5027564;28;20049;-79
2022/08/09 11:13:20;;;;;;;32.92;30.77;;;25.40;99.90;;;;;;5024239;28;20056;-78
2022/08/09 11:16:30;;;;;;;33.47;31.45;;;26.00;99.90;;;;;;5035494;28;20125;-78
2022/08/09 11:19:03;;;;;;;33.60;31.40;;;25.70;99.90;;;;;;5017512;28;20044;-80
2022/08/09 11:21:50;;;;;;;33.83;31.58;;;24.90;99.90;;;;;;5025609;28;20127;-77
2022/08/09 11:24:49;;;;;;;;;;;25.50;99.90;;;;;;5033944;28;20037;-78
2022/08/09 11:27:38;;;;;;;33.17;31.13;;;26.20;99.90;;;;;;5027734;28;19990;-77
2022/08/09 11:30:28;;;;;;;32.75;30.75;;;26.90;99.90;;;;;;5018698;28;20128;-77
2022/08/09 11:33:04;;;;;;;32.90;30.73;;;27.40;99.90;;;;;;5045846;28;20037;-77
2022/08/09 11:35:56;;;;;;;34.10;31.90;;;26.70;99.90;;;;;;5015348;28;20718;-78
2022/08/09 11:38:32;;;;;;;34.63;32.30;;;25.70;99.90;;;;;;5044142;28;20048;-78
2022/08/09 11:41:10;;;;;;;32.60;30.48;;;25.40;99.90;;;;;;5033088;28;20041;-78
2022/08/09 11:43:42;;;;;;;33.80;31.52;;;26.10;99.90;;;;;;5033484;28;20049;-76
2022/08/09 11:46:09;;;;;;;32.47;30.48;;;26.20;99.90;;;;;;5029191;28;20041;-76
2022/08/09 11:48:51;;;;;;;33.22;31.25;;;26.00;99.90;;;;;;5019883;28;20689;-77
2022/08/09 11:51:21;;;;;;;33.75;31.45;;;25.50;99.90;;;;;;5035058;28;20175;-77
2022/08/09 11:54:15;;;;;;;30.95;28.95;;;25.40;99.90;;;;;;5035542;28;20048;-77
2022/08/09 11:57:37;;;;;;;33.03;30.88;;;25.80;99.90;;;;;;5032184;28;20132;-77
2022/08/09 12:00:31;;;;;;;32.63;30.63;;;26.70;99.90;;;;;;5030025;28;20053;-78
2022/08/09 12:03:00;;;;;;;;;;;26.90;99.90;;;;;;5026345;28;20053;-79
2022/08/09 12:05:47;;;;;;;33.22;31.13;;;26.60;99.90;;;;;;5011696;28;20008;-79
2022/08/09 12:08:17;;;;;;;33.55;31.13;;;26.90;99.90;;;;;;5020360;28;20046;-77
2022/08/09 12:10:56;;;;;;;32.63;30.65;;;27.40;99.90;;;;;;5020677;28;20045;-79
2022/08/09 12:13:33;;;;;;;31.58;29.58;;;27.50;99.90;;;;;;5013346;28;20045;-79
2022/08/09 12:16:28;;;;;;;31.73;29.83;;;27.90;99.90;;;;;;5013848;28;20103;-77
2022/08/09 12:19:07;;;;;;;33.15;30.95;;;28.00;99.90;;;;;;5031988;28;20041;-78
2022/08/09 12:21:39;;;;;;;32.40;30.17;;;27.90;99.90;;;;;;5037451;28;20041;-77
2022/08/09 12:24:22;;;;;;;31.92;29.88;;;27.30;99.90;;;;;;5025209;28;20033;-78
2022/08/09 12:26:51;;;;;;;31.65;29.60;;;27.40;99.90;;;;;;5022624;28;20050;-77
2022/08/09 12:29:38;;;;;;;31.98;29.92;;;27.20;99.90;;;;;;5029314;28;20079;-78
2022/08/09 12:32:25;;;;;;;31.23;29.08;;;27.20;99.90;;;;;;5020633;28;20057;-78
2022/08/09 12:34:59;;;;;;;31.73;29.85;;;27.50;99.90;;;;;;5034335;28;20135;-78
2022/08/09 12:37:37;;;;;;;32.15;29.95;;;27.70;99.90;;;;;;5030027;28;20176;-79
2022/08/09 12:40:27;;;;;;;32.97;30.73;;;27.30;99.90;;;;;;5037071;28;20049;-78
2022/08/09 12:42:56;;;;;;;32.67;30.67;;;26.90;99.90;;;;;;5004592;28;20048;-79
2022/08/09 12:45:23;;;;;;;32.40;30.40;;;27.10;99.90;;;;;;5018325;28;20049;-79
2022/08/09 12:48:08;;;;;;;33.45;31.42;;;27.20;99.90;;;;;;5021339;28;20041;-79
2022/08/09 12:50:47;;;;;;;31.48;29.25;;;26.60;99.90;;;;;;5022342;28;20481;-79
2022/08/09 12:53:37;;;;;;;34.00;31.58;;;26.70;99.90;;;;;;5022739;28;20683;-78
2022/08/09 12:56:16;;;;;;;31.83;29.55;;;26.40;99.90;;;;;;5024451;28;20041;-78
2022/08/09 12:59:12;;;;;;;32.28;30.27;;;26.60;99.90;;;;;;5028316;28;20107;-78
2022/08/09 13:01:45;;;;;;;32.63;30.63;;;27.00;99.90;;;;;;5017002;28;20700;-79
2022/08/09 13:04:17;;;;;;;31.95;29.88;;;27.20;99.90;;;;;;5031284;28;20041;-82
2022/08/09 13:07:15;;;;;;;32.72;30.58;;;27.70;99.90;;;;;;5016241;28;20041;-80
2022/08/09 13:09:42;;;;;;;30.35;28.25;;;26.70;99.90;;;;;;5003160;28;20144;-81
2022/08/09 13:12:28;;;;;;;31.90;30.00;;;27.20;99.90;;;;;;5005875;28;20069;-79
2022/08/09 13:15:05;;;;;;;32.47;30.25;;;27.90;99.90;;;;;;4999126;28;20051;-78
2022/08/09 13:17:33;;;;;;;33.10;30.73;;;27.30;99.90;;;;;;5025973;28;20055;-80
2022/08/09 13:20:34;;;;;;;32.03;29.95;;;27.00;99.90;;;;;;5029247;28;20055;-79
2022/08/09 13:23:37;;;;;;;32.28;30.27;;;26.10;99.90;;;;;;5034327;28;20220;-79
2022/08/09 13:26:37;;;;;;;32.40;30.08;;;25.60;99.90;;;;;;5011151;28;20038;-82